Time;durP1;ratioP1;P1;durP2;ratioP2;P2;SDS_P1;SDS_P2;PMS_P1;PMS_P2;Temp;Humidity;BMP_temperature;BMP_pressure;BME280_temperature;BME280_humidity;BME280_pressure;Samples;Min_cycle;Max_cycle;Signal;HPM_P1;HPM_P2
2021/05/18 00:00:51;;;;;;;3.53;3.23;;;;;;;11.37;79.39;100009.56;5072792;28;20200;-77
2021/05/18 00:03:18;;;;;;;4.33;3.90;;;;;;;11.34;79.60;100010.66;5072290;28;20618;-77
2021/05/18 00:05:48;;;;;;;4.63;4.03;;;;;;;11.33;80.00;100011.59;5070430;28;20208;-77
2021/05/18 00:08:15;;;;;;;4.50;4.10;;;;;;;11.32;79.84;100017.06;5070819;28;20200;-77
2021/05/18 00:13:30;;;;;;;5.30;4.77;;;;;;;11.30;79.83;100014.50;5064776;28;20367;-77
2021/05/18 00:15:58;;;;;;;4.83;4.33;;;;;;;11.30;79.93;100024.31;5065091;28;20219;-77
2021/05/18 00:18:26;;;;;;;7.63;6.27;;;;;;;11.30;79.98;100026.97;5071321;28;20435;-77
2021/05/18 00:20:53;;;;;;;9.17;6.60;;;;;;;11.29;80.15;100018.13;5072579;28;20213;-77
2021/05/18 00:23:19;;;;;;;7.30;6.60;;;;;;;11.30;79.92;100030.50;5070550;28;20252;-77
2021/05/18 00:25:46;;;;;;;7.80;6.93;;;;;;;11.30;79.98;100032.31;5070024;28;20212;-77
2021/05/18 00:28:12;;;;;;;9.23;6.77;;;;;;;11.31;80.08;100039.34;5071224;28;20258;-78
2021/05/18 00:30:40;;;;;;;8.83;7.37;;;;;;;11.30;80.32;100041.16;5070741;28;20204;-77
2021/05/18 00:33:12;;;;;;;7.83;7.03;;;;;;;11.31;80.32;100036.69;5070696;28;20224;-77
2021/05/18 00:35:39;;;;;;;9.23;7.27;;;;;;;11.29;80.53;100046.59;5070789;28;20201;-78
2021/05/18 00:38:05;;;;;;;8.80;7.00;;;;;;;11.30;80.61;100046.50;5071126;28;20196;-77
2021/05/18 00:40:32;;;;;;;8.07;6.83;;;;;;;11.30;80.49;100059.81;5071547;28;20300;-77
2021/05/18 00:42:58;;;;;;;8.80;7.63;;;;;;;11.28;80.68;100053.78;5071711;28;20260;-77
2021/05/18 00:45:29;;;;;;;9.20;8.20;;;;;;;11.27;80.74;100056.56;5071499;28;20201;-77
2021/05/18 00:47:56;;;;;;;9.97;8.20;;;;;;;11.26;80.76;100052.19;5066689;28;20208;-77
2021/05/18 00:50:23;;;;;;;11.23;8.13;;;;;;;11.23;80.61;100071.06;5068413;28;20201;-77
2021/05/18 00:52:50;;;;;;;10.70;8.07;;;;;;;11.19;80.28;100061.59;5071333;28;20316;-77
2021/05/18 00:55:21;;;;;;;11.37;8.47;;;;;;;11.16;80.22;100069.81;5072048;28;20212;-77
2021/05/18 01:00:32;;;;;;;10.80;8.90;;;;;;;11.06;80.14;100067.00;5069849;28;20204;-77
2021/05/18 01:02:58;;;;;;;11.93;8.43;;;;;;;11.02;79.99;100071.72;5071467;28;20217;-77
2021/05/18 01:06:18;;;;;;;12.17;8.20;;;;;;;10.98;79.84;100070.22;5071492;28;20267;-77
2021/05/18 01:08:13;;;;;;;13.87;8.90;;;;;;;10.96;79.60;100080.16;5071729;28;20202;-76
2021/05/18 01:10:39;;;;;;;11.77;8.93;;;;;;;10.91;79.13;100085.00;5072068;28;20669;-77
2021/05/18 01:13:06;;;;;;;13.40;9.77;;;;;;;10.88;79.13;100095.88;5072115;28;20631;-77
2021/05/18 01:15:32;;;;;;;14.53;9.33;;;;;;;10.85;78.97;100090.75;5070760;28;20213;-77
2021/05/18 01:17:58;;;;;;;13.67;9.87;;;;;;;10.84;78.86;100090.88;5073057;28;20208;-77
2021/05/18 01:20:24;;;;;;;13.17;10.43;;;;;;;10.84;79.00;100090.88;5071677;28;20210;-77
2021/05/18 01:22:51;;;;;;;13.67;10.83;;;;;;;10.84;78.79;100102.38;5074888;28;20234;-77
2021/05/18 01:25:20;;;;;;;13.53;10.47;;;;;;;10.84;78.88;100102.38;5075460;28;20266;-77
2021/05/18 01:27:46;;;;;;;14.80;9.67;;;;;;;10.85;79.03;100103.22;5070814;28;20208;-78
2021/05/18 01:30:14;;;;;;;21.67;11.43;;;;;;;10.85;78.99;100113.88;5072838;28;20216;-77
2021/05/18 01:32:42;;;;;;;15.23;10.40;;;;;;;10.85;79.18;100112.06;5074679;28;20597;-77
2021/05/18 01:35:09;;;;;;;15.60;9.57;;;;;;;10.87;79.24;100123.47;5074446;28;20242;-77
2021/05/18 01:37:36;;;;;;;12.90;9.50;;;;;;;10.87;79.19;100126.13;5074337;28;20205;-77
2021/05/18 01:40:18;;;;;;;13.07;9.83;;;;;;;10.86;79.14;100127.09;5075007;28;20358;-77
2021/05/18 01:42:47;;;;;;;11.73;9.30;;;;;;;10.85;79.05;100133.38;5073994;28;20212;-77
2021/05/18 01:45:16;;;;;;;12.47;9.17;;;;;;;10.83;79.16;100137.97;5073266;28;20246;-77
2021/05/18 01:47:48;;;;;;;13.27;8.90;;;;;;;10.80;79.02;100140.84;5073302;28;20556;-77
2021/05/18 01:50:15;;;;;;;13.10;9.57;;;;;;;10.75;79.02;100145.66;5073748;28;20212;-77
2021/05/18 01:52:42;;;;;;;11.67;7.90;;;;;;;10.72;78.60;100146.75;5074574;28;20578;-77
2021/05/18 01:55:12;;;;;;;12.37;8.43;;;;;;;10.68;78.81;100147.06;5075816;28;20249;-77
2021/05/18 01:57:38;;;;;;;15.83;8.87;;;;;;;10.64;78.41;100150.91;5072667;28;20244;-77
2021/05/18 02:00:07;;;;;;;12.27;8.33;;;;;;;10.61;78.65;100159.97;5074304;28;20205;-77
2021/05/18 02:02:33;;;;;;;12.80;8.33;;;;;;;10.59;78.57;100155.69;5073711;28;20577;-77
2021/05/18 02:05:02;;;;;;;15.20;8.80;;;;;;;10.58;78.44;100168.16;5073677;28;20706;-77
2021/05/18 02:07:32;;;;;;;18.13;9.83;;;;;;;10.56;78.37;100169.25;5074029;28;20211;-76
2021/05/18 02:09:58;;;;;;;13.60;9.13;;;;;;;10.55;78.19;100167.56;5073203;28;20201;-77
2021/05/18 02:12:26;;;;;;;17.03;9.70;;;;;;;10.54;77.76;100173.84;5072671;28;20201;-77
2021/05/18 02:14:57;;;;;;;13.63;9.20;;;;;;;10.53;78.14;100174.78;5073036;28;20285;-77
2021/05/18 02:17:29;;;;;;;11.03;8.90;;;;;;;10.49;77.77;100174.16;5073139;28;20193;-77
2021/05/18 02:20:10;;;;;;;13.67;9.67;;;;;;;10.48;78.13;100175.09;5073637;28;20251;-77
2021/05/18 02:25:23;;;;;;;14.13;9.33;;;;;;;10.47;77.96;100189.38;5073377;28;20571;-77
2021/05/18 02:27:52;;;;;;;17.13;10.27;;;;;;;10.48;77.92;100184.91;5070833;28;20212;-77
2021/05/18 02:30:20;;;;;;;13.83;9.53;;;;;;;10.46;78.15;100195.66;5072886;28;20201;-77
2021/05/18 02:32:46;;;;;;;14.50;9.30;;;;;;;10.44;77.72;100194.91;5072772;28;20239;-77
2021/05/18 02:35:14;;;;;;;16.03;9.60;;;;;;;10.41;78.08;100198.63;5073031;28;20208;-77
2021/05/18 02:37:42;;;;;;;13.97;8.43;;;;;;;10.37;78.42;100199.84;5071533;28;20833;-77
2021/05/18 02:40:13;;;;;;;12.53;8.57;;;;;;;10.34;77.84;100204.50;5072598;28;20211;-76
2021/05/18 02:42:40;;;;;;;12.27;7.77;;;;;;;10.29;77.77;100214.63;5072402;28;20646;-77
2021/05/18 02:45:12;;;;;;;13.33;8.23;;;;;;;10.25;77.76;100210.44;5072945;28;20209;-77
2021/05/18 02:50:22;;;;;;;13.40;8.43;;;;;;;10.18;77.25;100209.16;5069086;28;20203;-77
2021/05/18 02:52:48;;;;;;;14.43;9.83;;;;;;;10.15;76.94;100220.00;5066216;28;20220;-77
2021/05/18 02:55:20;;;;;;;16.00;9.90;;;;;;;10.14;77.43;100221.81;5067712;28;20209;-77
2021/05/18 02:57:48;;;;;;;17.03;9.10;;;;;;;10.15;77.55;100222.66;5072783;28;20196;-77
2021/05/18 03:00:18;;;;;;;12.77;9.10;;;;;;;10.16;76.91;100221.72;5072220;28;20203;-77
2021/05/18 03:02:44;;;;;;;14.80;9.23;;;;;;;10.15;77.01;100220.84;5072421;28;20205;-77
2021/05/18 03:05:11;;;;;;;13.37;10.07;;;;;;;10.15;77.42;100220.84;5069968;28;20206;-77
2021/05/18 03:07:39;;;;;;;12.27;9.10;;;;;;;10.17;77.32;100224.28;5072342;28;20204;-77
2021/05/18 03:10:07;;;;;;;14.53;9.50;;;;;;;10.18;76.92;100218.00;5072396;28;20205;-77
2021/05/18 03:12:33;;;;;;;13.93;9.77;;;;;;;10.18;77.36;100220.66;5064966;28;20205;-77
2021/05/18 03:14:59;;;;;;;18.60;10.07;;;;;;;10.19;77.34;100222.41;5072616;28;20581;-77
2021/05/18 03:17:27;;;;;;;16.37;9.50;;;;;;;10.22;77.11;100221.31;5070593;28;20723;-77
2021/05/18 03:19:53;;;;;;;14.97;9.60;;;;;;;10.22;77.78;100230.13;5065760;28;20201;-77
2021/05/18 03:22:19;;;;;;;17.60;10.43;;;;;;;10.23;77.31;100226.53;5071941;28;20640;-77
2021/05/18 03:24:45;;;;;;;14.80;9.77;;;;;;;10.23;77.76;100229.19;5072015;28;20251;-77
2021/05/18 03:27:12;;;;;;;15.20;10.00;;;;;;;10.23;77.91;100231.00;5063389;28;20209;-77
2021/05/18 03:29:38;;;;;;;14.23;9.53;;;;;;;10.23;77.68;100221.19;5070425;28;20216;-77
2021/05/18 03:34:50;;;;;;;16.60;10.27;;;;;;;10.27;77.96;100222.69;5071935;28;20302;-77
2021/05/18 03:37:21;;;;;;;12.10;9.10;;;;;;;10.27;78.04;100220.03;5072093;28;20200;-77
2021/05/18 03:39:49;;;;;;;17.93;11.23;;;;;;;10.27;78.24;100229.84;5073397;28;20663;-77
2021/05/18 03:42:18;;;;;;;15.80;11.07;;;;;;;10.26;77.93;100226.31;5070367;28;20254;-77
2021/05/18 03:53:09;;;;;;;16.07;11.03;;;;;;;10.23;77.96;100231.84;5070584;28;20685;-77
2021/05/18 04:04:03;;;;;;;20.23;11.20;;;;;;;10.23;77.92;100239.84;5067172;28;20618;-77
2021/05/18 04:12:09;;;;;;;16.67;10.60;;;;;;;10.27;78.69;100246.66;5067251;28;20947;-77
2021/05/18 04:17:21;;;;;;;13.80;9.13;;;;;;;10.27;78.10;100246.66;5071699;28;20251;-77
2021/05/18 04:19:52;;;;;;;13.23;9.93;;;;;;;10.28;78.25;100243.03;5071632;28;20211;-77
2021/05/18 04:38:58;;;;;;;15.73;9.73;;;;;;;10.37;79.11;100273.50;5070923;28;20258;-77
2021/05/18 04:52:51;;;;;;;13.67;9.63;;;;;;;10.41;79.05;100273.19;5049974;28;20237;-76
2021/05/18 05:00:56;;;;;;;16.03;10.80;;;;;;;10.44;78.62;100275.63;5067873;28;20216;-76
2021/05/18 05:03:45;;;;;;;17.47;10.97;;;;;;;10.46;78.70;100278.19;5075051;28;20248;-77
2021/05/18 05:09:04;;;;;;;17.37;10.20;;;;;;;10.50;79.00;100285.03;5074363;28;20201;-76
2021/05/18 05:14:23;;;;;;;17.20;8.43;;;;;;;10.57;78.60;100291.59;5074541;28;20767;-76
2021/05/18 05:16:51;;;;;;;16.90;8.23;;;;;;;10.60;78.74;100285.22;5055184;28;20209;-77
2021/05/18 05:19:17;;;;;;;13.47;8.53;;;;;;;10.63;78.73;100291.19;5068153;28;20231;-76
2021/05/18 05:21:43;;;;;;;17.00;9.00;;;;;;;10.65;78.47;100296.41;5072751;28;20201;-77
2021/05/18 05:24:11;;;;;;;12.30;8.20;;;;;;;10.67;78.26;100300.69;5072014;28;20318;-76
2021/05/18 05:26:40;;;;;;;16.27;7.90;;;;;;;10.69;78.23;100308.56;5068470;28;20204;-76
2021/05/18 05:29:07;;;;;;;15.73;8.00;;;;;;;10.68;78.47;100309.53;5074445;28;20681;-76
2021/05/18 05:31:33;;;;;;;21.20;7.60;;;;;;;10.72;78.32;100300.38;5073692;28;20658;-76
2021/05/18 05:34:00;;;;;;;13.07;7.90;;;;;;;10.81;78.61;100306.84;5076092;28;20233;-76
2021/05/18 05:36:26;;;;;;;13.80;7.47;;;;;;;10.87;78.38;100317.94;5082446;28;20306;-76
2021/05/18 05:38:58;;;;;;;17.37;7.37;;;;;;;10.91;78.48;100314.13;5074257;28;20197;-76
2021/05/18 05:41:24;;;;;;;12.17;8.10;;;;;;;10.93;78.09;100316.66;5073860;28;20205;-76
2021/05/18 05:43:51;;;;;;;13.47;8.03;;;;;;;10.94;77.90;100321.88;5074181;28;20233;-76
2021/05/18 05:46:17;;;;;;;11.50;7.37;;;;;;;10.94;77.87;100326.34;5070153;28;20209;-76
2021/05/18 05:48:43;;;;;;;14.90;7.73;;;;;;;10.96;77.75;100322.63;5073661;28;20209;-76
2021/05/18 05:51:09;;;;;;;11.87;6.73;;;;;;;11.00;77.69;100331.25;5074436;28;20205;-76
2021/05/18 05:53:35;;;;;;;13.57;7.83;;;;;;;11.02;77.54;100330.19;5073733;28;20225;-77
2021/05/18 05:56:01;;;;;;;12.33;7.73;;;;;;;11.04;77.38;100338.94;5073974;28;20209;-77
2021/05/18 05:58:28;;;;;;;12.27;7.90;;;;;;;11.06;77.37;100338.84;5068681;28;20339;-76
2021/05/18 06:00:56;;;;;;;11.13;6.90;;;;;;;11.07;77.09;100338.72;5074052;28;20217;-76
2021/05/18 06:03:23;;;;;;;10.33;7.60;;;;;;;11.10;76.85;100343.00;5072897;28;20592;-76
2021/05/18 06:05:49;;;;;;;9.83;6.60;;;;;;;11.12;76.79;100335.72;5073138;28;20198;-77
2021/05/18 06:08:15;;;;;;;9.97;7.30;;;;;;;11.16;76.60;100333.69;5066337;28;20275;-76
2021/05/18 06:10:43;;;;;;;11.97;7.90;;;;;;;11.21;76.45;100328.91;5067273;28;20212;-77
2021/05/18 06:13:37;;;;;;;11.63;7.83;;;;;;;11.26;76.18;100326.75;5068482;28;20675;-77
2021/05/18 06:16:34;;;;;;;11.20;7.40;;;;;;;11.32;76.05;100332.50;5062466;28;20565;-76
2021/05/18 06:41:42;;;;;;;9.93;6.40;;;;;;;12.62;70.58;100352.25;5071320;28;20205;-77
2021/05/18 06:46:59;;;;;;;6.90;5.13;;;;;;;12.60;69.11;100354.19;5067572;28;20576;-76
2021/05/18 06:49:26;;;;;;;9.43;5.00;;;;;;;12.59;69.10;100353.34;5060259;28;20213;-76
2021/05/18 06:51:52;;;;;;;6.60;4.30;;;;;;;12.61;68.75;100355.88;5060687;28;20607;-77
2021/05/18 06:54:18;;;;;;;7.67;5.30;;;;;;;12.63;68.26;100362.81;5071344;28;20605;-76
2021/05/18 06:56:47;;;;;;;6.90;4.60;;;;;;;12.67;68.00;100364.28;5072876;28;20258;-77
2021/05/18 07:01:59;;;;;;;7.20;4.43;;;;;;;12.73;67.38;100370.97;5063061;28;20290;-77
2021/05/18 07:04:28;;;;;;;9.30;4.90;;;;;;;12.75;67.09;100369.03;5061993;28;20225;-76
2021/05/18 07:07:01;;;;;;;7.33;4.50;;;;;;;12.76;66.90;100376.09;5065023;28;20542;-78
2021/05/18 07:09:27;;;;;;;6.53;4.83;;;;;;;12.78;66.56;100379.50;5073305;28;20208;-78
2021/05/18 07:11:53;;;;;;;8.43;4.77;;;;;;;12.78;66.13;100372.34;5075855;28;20636;-78
2021/05/18 07:14:19;;;;;;;6.93;4.30;;;;;;;12.80;66.47;100375.75;5075036;28;20287;-77
2021/05/18 07:16:45;;;;;;;5.93;4.57;;;;;;;12.80;65.81;100388.25;5075439;28;20297;-78
2021/05/18 07:19:11;;;;;;;5.17;3.70;;;;;;;12.79;65.42;100389.22;5076507;28;20213;-78
2021/05/18 07:21:38;;;;;;;10.93;4.67;;;;;;;12.78;65.46;100399.06;5065170;28;20222;-78
2021/05/18 07:24:09;;;;;;;5.93;4.57;;;;;;;12.81;64.96;100395.31;5074657;28;20240;-78
2021/05/18 07:26:35;;;;;;;8.73;4.70;;;;;;;12.79;64.78;100398.09;5075885;28;20232;-78
2021/05/18 07:29:02;;;;;;;7.73;4.63;;;;;;;12.81;65.11;100395.31;5076245;28;20193;-77
2021/05/18 07:31:29;;;;;;;5.53;4.13;;;;;;;12.82;64.80;100397.00;5072252;28;20213;-77
2021/05/18 07:33:55;;;;;;;5.43;4.23;;;;;;;12.80;64.54;100398.94;5074993;28;20324;-78
2021/05/18 07:36:21;;;;;;;6.67;4.63;;;;;;;12.81;64.37;100389.94;5068775;28;20637;-78
2021/05/18 07:38:49;;;;;;;7.90;4.90;;;;;;;12.85;64.52;100399.44;5073059;28;20226;-78
2021/05/18 07:41:15;;;;;;;5.53;3.90;;;;;;;12.89;64.42;100394.72;5070176;28;20239;-78
2021/05/18 07:43:41;;;;;;;5.13;4.23;;;;;;;12.93;64.17;100391.69;5069925;28;20225;-78
2021/05/18 07:46:13;;;;;;;4.93;4.43;;;;;;;12.99;64.52;100393.88;5076450;28;20805;-77
2021/05/18 07:48:42;;;;;;;7.20;4.50;;;;;;;13.04;64.11;100397.06;5073764;28;20372;-77
2021/05/18 07:51:17;;;;;;;5.67;4.40;;;;;;;13.08;63.97;100398.50;5060837;28;20216;-76
2021/05/18 07:59:24;;;;;;;7.57;4.53;;;;;;;13.10;63.03;100396.56;5061635;28;20203;-76
2021/05/18 08:07:35;;;;;;;7.27;4.93;;;;;;;13.21;62.98;100401.13;5029194;28;20236;-76
2021/05/18 08:10:08;;;;;;;8.17;5.33;;;;;;;13.20;62.94;100396.75;5055317;28;20778;-77
2021/05/18 08:12:35;;;;;;;8.23;5.73;;;;;;;13.20;62.66;100396.75;5067980;28;20205;-77
2021/05/18 08:15:13;;;;;;;8.63;5.63;;;;;;;13.21;62.91;100403.81;5070368;28;20225;-77
2021/05/18 08:17:42;;;;;;;6.47;4.47;;;;;;;13.19;62.84;100401.25;5068513;28;20299;-78
2021/05/18 08:20:28;;;;;;;5.83;4.90;;;;;;;13.20;62.46;100402.94;5062474;28;20205;-78
2021/05/18 10:14:19;;;;;;;3.77;2.90;;;;;;;15.57;52.39;100400.19;5071392;28;20235;-79
2021/05/18 10:35:43;;;;;;;4.53;3.20;;;;;;;16.42;49.36;100380.88;5072022;28;20202;-79
2021/05/18 10:38:12;;;;;;;4.77;3.43;;;;;;;16.50;49.40;100379.16;5070163;28;20235;-79
2021/05/18 10:40:39;;;;;;;4.53;3.37;;;;;;;16.55;49.04;100373.38;5072702;28;20250;-79
2021/05/18 10:43:21;;;;;;;4.23;3.37;;;;;;;16.56;48.94;100367.84;5069402;28;20222;-78
2021/05/18 10:46:13;;;;;;;4.03;2.93;;;;;;;16.55;48.43;100368.84;5072374;28;20225;-79
2021/05/18 10:48:57;;;;;;;4.17;2.90;;;;;;;16.58;48.10;100373.94;5069435;28;20286;-79
2021/05/18 10:51:26;;;;;;;3.67;3.03;;;;;;;16.65;48.50;100363.50;5071161;28;20216;-79
2021/05/18 10:54:18;;;;;;;3.80;3.20;;;;;;;16.81;49.02;100362.91;5067019;28;20651;-79
2021/05/18 10:57:20;;;;;;;4.83;3.37;;;;;;;17.02;48.63;100363.56;5064812;28;20227;-79
2021/05/18 10:59:51;;;;;;;3.97;3.50;;;;;;;17.11;48.05;100368.06;5075318;28;20196;-79
2021/05/18 11:02:19;;;;;;;3.50;3.13;;;;;;;17.18;47.94;100361.13;5072881;28;20666;-79
2021/05/18 11:04:47;;;;;;;4.17;3.40;;;;;;;17.30;48.17;100359.94;5075848;28;20802;-78
2021/05/18 11:07:17;;;;;;;3.87;2.80;;;;;;;17.49;48.58;100358.16;5070885;28;20212;-79
2021/05/18 11:09:43;;;;;;;5.33;3.23;;;;;;;17.62;47.78;100361.38;5075219;28;20211;-79
2021/05/18 11:12:11;;;;;;;4.83;2.83;;;;;;;17.72;46.82;100348.75;5070217;28;20655;-79
2021/05/18 11:14:49;;;;;;;3.87;3.30;;;;;;;17.80;45.87;100354.22;5072834;28;20237;-79
2021/05/18 11:17:26;;;;;;;4.23;2.97;;;;;;;17.80;45.55;100350.66;5074048;28;20214;-79
2021/05/18 11:20:12;;;;;;;4.43;2.60;;;;;;;17.85;44.97;100351.91;5066370;28;20226;-79
2021/05/18 11:23:24;;;;;;;4.67;2.53;;;;;;;17.90;44.65;100352.31;5077379;28;20200;-77
2021/05/18 11:25:53;;;;;;;4.33;2.70;;;;;;;18.05;45.19;100347.25;5075689;28;20576;-77
2021/05/18 11:28:23;;;;;;;3.53;2.57;;;;;;;18.17;44.72;100356.81;5067161;28;20282;-78
2021/05/18 11:30:52;;;;;;;2.90;2.20;;;;;;;18.27;43.86;100356.75;5062893;28;20230;-78
2021/05/18 11:33:27;;;;;;;3.77;3.40;;;;;;;18.30;43.51;100364.50;5076680;28;20231;-77
2021/05/18 11:36:16;;;;;;;5.53;3.40;;;;;;;18.31;44.10;100360.81;5077054;28;20261;-78
2021/05/18 11:38:49;;;;;;;4.83;2.90;;;;;;;18.32;44.47;100359.81;5071051;28;20254;-77
2021/05/18 11:41:18;;;;;;;4.47;2.80;;;;;;;18.32;44.22;100351.72;5073665;28;20196;-78
2021/05/18 11:43:48;;;;;;;5.03;3.27;;;;;;;18.29;44.48;100355.56;5068694;28;20411;-78
2021/05/18 11:46:15;;;;;;;3.80;3.03;;;;;;;18.29;44.64;100360.13;5070650;28;20208;-79
2021/05/18 11:48:43;;;;;;;4.70;3.10;;;;;;;18.27;44.46;100357.56;5072294;28;20236;-78
2021/05/18 11:51:11;;;;;;;3.70;3.10;;;;;;;18.25;44.64;100356.91;5072232;28;20208;-78
2021/05/18 11:53:40;;;;;;;6.60;3.30;;;;;;;18.22;44.92;100359.06;5068527;28;20755;-78
2021/05/18 11:56:18;;;;;;;3.67;3.10;;;;;;;18.17;44.82;100356.81;5072725;28;20691;-78
2021/05/18 11:58:44;;;;;;;4.17;3.07;;;;;;;18.14;45.14;100358.94;5074074;28;20204;-77
2021/05/18 12:01:10;;;;;;;4.13;3.00;;;;;;;18.21;45.49;100354.66;5070658;28;20236;-77
2021/05/18 12:03:37;;;;;;;4.93;3.77;;;;;;;18.25;44.89;100356.91;5069140;28;20226;-77
2021/05/18 12:06:05;;;;;;;5.87;3.37;;;;;;;18.28;44.62;100355.72;5067542;28;20201;-78
2021/05/18 12:08:34;;;;;;;3.80;3.33;;;;;;;18.29;43.98;100355.56;5071087;28;20281;-79
2021/05/18 12:11:18;;;;;;;4.80;2.93;;;;;;;18.31;43.70;100355.41;5069583;28;20207;-77
2021/05/18 12:13:46;;;;;;;4.53;3.50;;;;;;;18.27;43.09;100354.06;5071607;28;20226;-78
2021/05/18 12:16:13;;;;;;;5.07;3.43;;;;;;;18.26;43.39;100353.22;5068247;28;20262;-77
2021/05/18 12:18:42;;;;;;;4.03;3.37;;;;;;;18.24;43.24;100357.91;5060010;28;20658;-78
2021/05/18 12:21:13;;;;;;;3.63;3.27;;;;;;;18.21;43.25;100349.28;5067119;28;20236;-78
2021/05/18 12:23:40;;;;;;;4.80;3.53;;;;;;;18.19;42.99;100359.34;5073973;28;20227;-78
2021/05/18 12:26:15;;;;;;;4.07;3.20;;;;;;;18.18;43.37;100363.91;5065824;28;20641;-79
2021/05/18 12:28:56;;;;;;;3.53;3.20;;;;;;;18.25;43.74;100361.44;5075721;28;20681;-79
2021/05/18 12:31:32;;;;;;;5.43;3.73;;;;;;;18.26;44.00;100363.13;5067209;28;20222;-79
2021/05/18 12:34:00;;;;;;;5.43;3.40;;;;;;;18.29;44.27;100360.13;5073130;28;20235;-79
2021/05/18 12:36:28;;;;;;;5.20;3.50;;;;;;;18.29;44.82;100357.41;5075150;28;20227;-78
2021/05/18 12:39:08;;;;;;;5.10;3.40;;;;;;;18.30;44.87;100361.81;5075086;28;20292;-79
2021/05/18 12:42:02;;;;;;;6.63;3.67;;;;;;;18.31;46.22;100366.19;5072445;28;20291;-79
2021/05/18 12:44:31;;;;;;;4.90;3.73;;;;;;;18.31;46.56;100364.34;5038430;28;20313;-79
2021/05/18 12:46:59;;;;;;;3.97;3.60;;;;;;;18.27;47.12;100365.66;5074242;28;20204;-78
2021/05/18 12:49:28;;;;;;;5.60;4.10;;;;;;;18.19;47.25;100359.34;5067498;28;20208;-78
2021/05/18 12:52:12;;;;;;;4.57;3.33;;;;;;;18.12;47.54;100367.19;5076464;28;20210;-79
2021/05/18 12:54:44;;;;;;;4.33;3.40;;;;;;;18.11;47.75;100365.50;5071265;28;20243;-79
2021/05/18 12:57:12;;;;;;;4.00;3.43;;;;;;;18.07;47.41;100364.13;5071565;28;20195;-79
2021/05/18 13:00:11;;;;;;;5.30;3.40;;;;;;;17.96;47.12;100362.47;5087853;28;20212;-80
2021/05/18 13:02:40;;;;;;;4.90;4.40;;;;;;;17.90;46.78;100363.09;5072662;28;20198;-81
2021/05/18 13:05:29;;;;;;;5.63;4.40;;;;;;;17.84;46.65;100365.53;5073161;28;20627;-80
2021/05/18 13:08:14;;;;;;;6.13;3.50;;;;;;;17.75;46.72;100361.03;5074969;28;20228;-78
2021/05/18 13:10:56;;;;;;;4.37;3.80;;;;;;;17.67;46.90;100364.50;5068375;28;20342;-79
2021/05/18 13:13:24;;;;;;;5.27;3.97;;;;;;;17.63;47.12;100360.38;5074853;28;20223;-80
2021/05/18 13:15:51;;;;;;;4.70;3.93;;;;;;;17.57;47.18;100356.41;5077186;28;20215;-80
2021/05/18 13:18:17;;;;;;;5.73;3.47;;;;;;;17.56;47.37;100360.09;5072944;28;20240;-80
2021/05/18 13:20:48;;;;;;;5.13;3.63;;;;;;;17.58;47.15;100358.13;5078639;28;20210;-80
2021/05/18 13:23:25;;;;;;;5.00;3.77;;;;;;;17.57;47.06;100350.19;5077293;28;20219;-80
2021/05/18 13:28:37;;;;;;;4.60;3.70;;;;;;;17.57;47.07;100356.41;5073816;28;20732;-80
2021/05/18 13:31:04;;;;;;;5.17;3.73;;;;;;;17.63;47.18;100353.13;5073278;28;20202;-79
2021/05/18 13:33:30;;;;;;;4.70;3.80;;;;;;;17.72;47.00;100358.66;5078560;28;20238;-81
2021/05/18 13:35:57;;;;;;;4.83;3.77;;;;;;;17.78;46.76;100344.56;5077029;28;20212;-79
2021/05/18 13:38:23;;;;;;;5.30;3.70;;;;;;;17.83;46.70;100351.22;5071987;28;20209;-80
2021/05/18 13:40:50;;;;;;;4.33;3.90;;;;;;;17.89;46.43;100350.63;5076024;28;20207;-79
2021/05/18 13:43:16;;;;;;;6.83;3.97;;;;;;;17.93;46.23;100359.22;5071290;28;20228;-78
2021/05/18 13:45:43;;;;;;;5.90;3.67;;;;;;;17.93;46.02;100362.78;5077398;28;20888;-78
2021/05/18 13:48:09;;;;;;;4.53;3.60;;;;;;;17.89;46.02;100369.50;5080336;28;20580;-79
2021/05/18 13:50:36;;;;;;;7.23;3.63;;;;;;;17.89;46.36;100361.41;5076517;28;20232;-80
2021/05/18 13:53:04;;;;;;;4.37;3.97;;;;;;;17.83;46.79;100367.38;5075679;28;20226;-80
2021/05/18 13:55:30;;;;;;;5.23;4.40;;;;;;;17.69;47.90;100367.88;5079663;28;20262;-79
2021/05/18 13:57:57;;;;;;;4.70;4.27;;;;;;;17.51;49.10;100375.88;5079675;28;20204;-79
2021/05/18 14:00:23;;;;;;;5.50;4.80;;;;;;;17.35;51.01;100387.28;5077919;28;20224;-80
2021/05/18 14:02:50;;;;;;;5.00;4.50;;;;;;;17.21;52.29;100387.72;5069764;28;20652;-80
2021/05/18 14:05:19;;;;;;;7.10;4.70;;;;;;;16.99;53.65;100388.09;5070468;28;20327;-80
2021/05/18 14:08:28;;;;;;;6.30;4.13;;;;;;;16.69;54.28;100391.78;5069690;28;20203;-79
2021/05/18 14:10:58;;;;;;;4.73;4.00;;;;;;;16.34;55.38;100384.25;5063238;28;20210;-78
2021/05/18 14:13:26;;;;;;;4.53;3.53;;;;;;;16.10;56.06;100384.66;5068195;28;20222;-78
2021/05/18 14:15:52;;;;;;;5.43;3.40;;;;;;;15.87;56.19;100384.03;5068498;28;20270;-78
2021/05/18 14:18:19;;;;;;;3.30;3.00;;;;;;;15.68;57.14;100389.34;5069170;28;20193;-78
2021/05/18 14:20:45;;;;;;;3.83;2.67;;;;;;;15.54;57.43;100389.69;5067754;28;20634;-78
2021/05/18 14:23:12;;;;;;;2.87;2.50;;;;;;;15.38;57.43;100403.63;5072966;28;20228;-78
2021/05/18 14:25:39;;;;;;;4.73;2.77;;;;;;;15.22;57.85;100408.63;5068312;28;20296;-79
2021/05/18 14:28:06;;;;;;;3.77;2.50;;;;;;;15.09;58.78;100413.31;5069948;28;20201;-77
2021/05/18 14:30:33;;;;;;;4.10;3.20;;;;;;;15.02;59.60;100414.84;5071132;28;20656;-80
2021/05/18 14:32:59;;;;;;;2.63;2.13;;;;;;;14.97;59.71;100407.19;5075083;28;20583;-78
2021/05/18 14:35:27;;;;;;;1.90;1.70;;;;;;;14.88;59.90;100416.84;5070659;28;20224;-78
2021/05/18 14:37:57;;;;;;;6.27;2.27;;;;;;;14.82;60.40;100408.50;5071013;28;20205;-79
2021/05/18 14:45:55;;;;;;;1.90;1.80;;;;;;;14.87;61.04;100411.59;5073499;28;20205;-79
2021/05/18 14:53:39;;;;;;;1.97;1.87;;;;;;;14.81;60.76;100414.81;5077068;28;20201;-80
2021/05/18 14:56:42;;;;;;;3.13;2.30;;;;;;;14.80;61.13;100407.75;5082623;28;20197;-81
2021/05/18 14:59:10;;;;;;;1.93;1.77;;;;;;;14.77;61.24;100408.88;5080248;28;20272;-80
2021/05/18 15:01:36;;;;;;;2.33;2.00;;;;;;;14.79;61.47;100406.91;5077474;28;20209;-80
2021/05/18 15:04:02;;;;;;;2.73;1.97;;;;;;;14.85;61.80;100405.56;5073977;28;20255;-80
2021/05/18 15:06:31;;;;;;;2.50;1.90;;;;;;;14.86;62.20;100410.78;5073132;28;20201;-80
2021/05/18 15:08:57;;;;;;;2.03;1.93;;;;;;;14.87;62.36;100415.13;5079052;28;20210;-80
2021/05/18 15:11:23;;;;;;;1.77;1.67;;;;;;;14.87;62.64;100416.97;5077423;28;20261;-80
2021/05/18 15:13:49;;;;;;;1.97;1.87;;;;;;;14.83;62.86;100413.72;5076808;28;20678;-80
2021/05/18 15:16:16;;;;;;;3.20;2.20;;;;;;;14.82;64.01;100416.53;5074821;28;20254;-80
2021/05/18 15:18:44;;;;;;;1.93;1.73;;;;;;;14.79;63.69;100416.78;5074261;28;20228;-80
2021/05/18 15:21:10;;;;;;;2.20;1.90;;;;;;;14.76;63.92;100409.84;5075968;28;20209;-80
2021/05/18 15:23:39;;;;;;;3.33;2.40;;;;;;;14.72;64.32;100416.44;5078476;28;20219;-80
2021/05/18 15:26:05;;;;;;;3.43;2.47;;;;;;;14.72;64.22;100415.59;5077499;28;20220;-80
2021/05/18 15:28:31;;;;;;;2.57;2.10;;;;;;;14.70;64.29;100415.72;5081626;28;20217;-80
2021/05/18 15:30:57;;;;;;;2.87;2.40;;;;;;;14.68;64.35;100420.38;5076759;28;20222;-80
2021/05/18 15:33:26;;;;;;;2.50;2.30;;;;;;;14.70;64.74;100422.91;5071131;28;20229;-80
2021/05/18 15:35:52;;;;;;;3.33;2.50;;;;;;;14.68;64.51;100425.75;5080529;28;20292;-81
2021/05/18 15:38:18;;;;;;;2.53;2.00;;;;;;;14.68;63.83;100427.56;5076618;28;20230;-80
2021/05/18 15:40:45;;;;;;;2.67;2.47;;;;;;;14.66;63.71;100416.97;5079573;28;20272;-81
2021/05/18 15:43:11;;;;;;;3.80;2.70;;;;;;;14.66;63.58;100422.34;5078796;28;20217;-81
2021/05/18 15:45:37;;;;;;;4.00;2.97;;;;;;;14.70;63.18;100415.72;5082984;28;20216;-81
2021/05/18 15:48:06;;;;;;;3.10;2.67;;;;;;;14.73;62.96;100412.78;5082752;28;20204;-81
2021/05/18 15:50:34;;;;;;;3.37;3.00;;;;;;;14.76;62.84;100417.03;5078883;28;20554;-80
2021/05/18 15:53:00;;;;;;;3.40;3.07;;;;;;;14.77;63.10;100414.22;5074264;28;20609;-81
2021/05/18 15:55:26;;;;;;;4.70;3.00;;;;;;;14.78;62.96;100417.75;5075763;28;20709;-80